sensor_id;sensor_type;location;lat;lon;timestamp;P1;durP1;ratioP1;P2;durP2;ratioP2
26080;SDS011;13991;51.174;4.438;2023-08-17T00:00:25;3.00;;;1.23;;
26080;SDS011;13991;51.174;4.438;2023-08-17T00:02:51;5.57;;;1.37;;
26080;SDS011;13991;51.174;4.438;2023-08-17T00:05:17;12.57;;;1.77;;
26080;SDS011;13991;51.174;4.438;2023-08-17T00:07:43;4.73;;;1.37;;
26080;SDS011;13991;51.174;4.438;2023-08-17T00:48:46;7.17;;;1.40;;
26080;SDS011;13991;51.174;4.438;2023-08-17T00:51:12;6.03;;;1.27;;
26080;SDS011;13991;51.174;4.438;2023-08-17T00:53:39;9.53;;;1.97;;
26080;SDS011;13991;51.174;4.438;2023-08-17T00:56:04;4.10;;;1.10;;
26080;SDS011;13991;51.174;4.438;2023-08-17T00:58:30;4.53;;;1.07;;
26080;SDS011;13991;51.174;4.438;2023-08-17T01:00:57;9.43;;;1.70;;
26080;SDS011;13991;51.174;4.438;2023-08-17T01:03:23;6.07;;;1.60;;
26080;SDS011;13991;51.174;4.438;2023-08-17T01:05:53;6.97;;;1.47;;
26080;SDS011;13991;51.174;4.438;2023-08-17T01:08:18;7.03;;;2.10;;
26080;SDS011;13991;51.174;4.438;2023-08-17T01:10:49;12.40;;;1.60;;
26080;SDS011;13991;51.174;4.438;2023-08-17T01:13:28;8.03;;;1.60;;
26080;SDS011;13991;51.174;4.438;2023-08-17T01:16:04;5.82;;;1.70;;
26080;SDS011;13991;51.174;4.438;2023-08-17T01:18:34;15.37;;;1.97;;
26080;SDS011;13991;51.174;4.438;2023-08-17T01:21:02;7.17;;;1.70;;
26080;SDS011;13991;51.174;4.438;2023-08-17T01:23:30;7.33;;;1.53;;
26080;SDS011;13991;51.174;4.438;2023-08-17T01:25:57;7.40;;;1.50;;
26080;SDS011;13991;51.174;4.438;2023-08-17T01:28:22;10.37;;;1.50;;
26080;SDS011;13991;51.174;4.438;2023-08-17T01:33:33;5.50;;;1.57;;
26080;SDS011;13991;51.174;4.438;2023-08-17T01:38:43;8.90;;;1.20;;
26080;SDS011;13991;51.174;4.438;2023-08-17T01:41:10;4.83;;;1.50;;
26080;SDS011;13991;51.174;4.438;2023-08-17T01:43:43;9.43;;;1.60;;
26080;SDS011;13991;51.174;4.438;2023-08-17T01:46:14;6.80;;;1.93;;
26080;SDS011;13991;51.174;4.438;2023-08-17T01:48:41;14.20;;;1.50;;
26080;SDS011;13991;51.174;4.438;2023-08-17T01:51:07;9.23;;;2.03;;
26080;SDS011;13991;51.174;4.438;2023-08-17T01:53:33;4.40;;;1.37;;
26080;SDS011;13991;51.174;4.438;2023-08-17T01:55:59;12.00;;;1.63;;
26080;SDS011;13991;51.174;4.438;2023-08-17T01:58:24;9.70;;;1.83;;
26080;SDS011;13991;51.174;4.438;2023-08-17T02:00:50;13.70;;;2.03;;
26080;SDS011;13991;51.174;4.438;2023-08-17T02:03:15;8.43;;;1.53;;
26080;SDS011;13991;51.174;4.438;2023-08-17T02:05:47;5.37;;;1.60;;
26080;SDS011;13991;51.174;4.438;2023-08-17T02:08:13;8.17;;;1.63;;
26080;SDS011;13991;51.174;4.438;2023-08-17T02:10:38;9.70;;;1.40;;
26080;SDS011;13991;51.174;4.438;2023-08-17T02:13:04;7.00;;;1.43;;
26080;SDS011;13991;51.174;4.438;2023-08-17T02:15:30;6.27;;;1.70;;
26080;SDS011;13991;51.174;4.438;2023-08-17T02:18:00;8.90;;;1.43;;
26080;SDS011;13991;51.174;4.438;2023-08-17T02:20:26;7.03;;;1.47;;
26080;SDS011;13991;51.174;4.438;2023-08-17T02:22:52;6.10;;;1.30;;
26080;SDS011;13991;51.174;4.438;2023-08-17T02:25:17;8.50;;;1.83;;
26080;SDS011;13991;51.174;4.438;2023-08-17T02:27:44;13.13;;;1.17;;
26080;SDS011;13991;51.174;4.438;2023-08-17T02:30:10;9.10;;;1.40;;
26080;SDS011;13991;51.174;4.438;2023-08-17T02:32:36;11.57;;;1.80;;
26080;SDS011;13991;51.174;4.438;2023-08-17T02:35:02;11.33;;;1.50;;
26080;SDS011;13991;51.174;4.438;2023-08-17T02:37:28;12.33;;;1.90;;
26080;SDS011;13991;51.174;4.438;2023-08-17T02:39:53;10.03;;;1.70;;
26080;SDS011;13991;51.174;4.438;2023-08-17T02:42:19;8.77;;;1.97;;
26080;SDS011;13991;51.174;4.438;2023-08-17T02:44:44;8.40;;;1.63;;
26080;SDS011;13991;51.174;4.438;2023-08-17T02:47:10;12.47;;;1.80;;
26080;SDS011;13991;51.174;4.438;2023-08-17T02:49:36;16.50;;;2.27;;
26080;SDS011;13991;51.174;4.438;2023-08-17T02:52:02;7.77;;;1.40;;
26080;SDS011;13991;51.174;4.438;2023-08-17T02:54:27;11.57;;;2.00;;
26080;SDS011;13991;51.174;4.438;2023-08-17T02:56:53;5.50;;;1.53;;
26080;SDS011;13991;51.174;4.438;2023-08-17T02:59:19;10.50;;;2.73;;
26080;SDS011;13991;51.174;4.438;2023-08-17T03:01:45;11.40;;;1.93;;
26080;SDS011;13991;51.174;4.438;2023-08-17T03:04:10;8.17;;;1.90;;
26080;SDS011;13991;51.174;4.438;2023-08-17T03:06:36;12.13;;;2.00;;
26080;SDS011;13991;51.174;4.438;2023-08-17T03:09:02;8.03;;;1.80;;
26080;SDS011;13991;51.174;4.438;2023-08-17T03:11:27;11.03;;;1.93;;
26080;SDS011;13991;51.174;4.438;2023-08-17T03:13:53;7.57;;;2.13;;
26080;SDS011;13991;51.174;4.438;2023-08-17T03:16:24;7.20;;;1.80;;
26080;SDS011;13991;51.174;4.438;2023-08-17T03:18:51;10.50;;;1.57;;
26080;SDS011;13991;51.174;4.438;2023-08-17T03:21:16;7.40;;;1.50;;
26080;SDS011;13991;51.174;4.438;2023-08-17T03:23:43;2.80;;;1.67;;
26080;SDS011;13991;51.174;4.438;2023-08-17T03:26:09;5.90;;;2.10;;
26080;SDS011;13991;51.174;4.438;2023-08-17T03:28:35;12.97;;;1.90;;
26080;SDS011;13991;51.174;4.438;2023-08-17T03:31:01;9.80;;;1.73;;
26080;SDS011;13991;51.174;4.438;2023-08-17T03:33:28;8.53;;;1.87;;
26080;SDS011;13991;51.174;4.438;2023-08-17T03:35:54;6.83;;;1.97;;
26080;SDS011;13991;51.174;4.438;2023-08-17T03:38:20;6.77;;;1.97;;
26080;SDS011;13991;51.174;4.438;2023-08-17T03:40:48;6.63;;;1.90;;
26080;SDS011;13991;51.174;4.438;2023-08-17T03:43:14;7.70;;;1.83;;
26080;SDS011;13991;51.174;4.438;2023-08-17T03:45:40;13.57;;;1.87;;
26080;SDS011;13991;51.174;4.438;2023-08-17T03:48:07;14.83;;;2.10;;
26080;SDS011;13991;51.174;4.438;2023-08-17T03:50:33;10.67;;;2.10;;
26080;SDS011;13991;51.174;4.438;2023-08-17T03:52:58;9.67;;;1.83;;
26080;SDS011;13991;51.174;4.438;2023-08-17T03:55:24;10.47;;;2.00;;
26080;SDS011;13991;51.174;4.438;2023-08-17T03:57:50;5.80;;;1.57;;
26080;SDS011;13991;51.174;4.438;2023-08-17T04:00:15;7.67;;;1.70;;
26080;SDS011;13991;51.174;4.438;2023-08-17T04:02:41;6.23;;;1.63;;
26080;SDS011;13991;51.174;4.438;2023-08-17T04:05:07;5.57;;;1.37;;
26080;SDS011;13991;51.174;4.438;2023-08-17T04:07:33;19.57;;;2.63;;
26080;SDS011;13991;51.174;4.438;2023-08-17T04:09:59;8.17;;;1.70;;
26080;SDS011;13991;51.174;4.438;2023-08-17T04:12:25;8.37;;;1.90;;
26080;SDS011;13991;51.174;4.438;2023-08-17T04:14:50;10.30;;;1.93;;
26080;SDS011;13991;51.174;4.438;2023-08-17T04:17:16;7.37;;;2.30;;
26080;SDS011;13991;51.174;4.438;2023-08-17T04:19:42;8.60;;;2.17;;
26080;SDS011;13991;51.174;4.438;2023-08-17T04:22:07;12.43;;;1.50;;
26080;SDS011;13991;51.174;4.438;2023-08-17T04:24:33;12.60;;;1.60;;
26080;SDS011;13991;51.174;4.438;2023-08-17T04:26:59;11.53;;;2.17;;
26080;SDS011;13991;51.174;4.438;2023-08-17T04:29:25;6.80;;;1.50;;
26080;SDS011;13991;51.174;4.438;2023-08-17T04:31:50;10.70;;;2.00;;
26080;SDS011;13991;51.174;4.438;2023-08-17T04:34:16;6.97;;;1.90;;
26080;SDS011;13991;51.174;4.438;2023-08-17T04:36:42;12.37;;;2.10;;
26080;SDS011;13991;51.174;4.438;2023-08-17T04:39:07;6.10;;;1.27;;
26080;SDS011;13991;51.174;4.438;2023-08-17T04:41:34;5.00;;;1.83;;
26080;SDS011;13991;51.174;4.438;2023-08-17T04:44:00;8.07;;;1.60;;
26080;SDS011;13991;51.174;4.438;2023-08-17T04:46:25;7.23;;;2.20;;
26080;SDS011;13991;51.174;4.438;2023-08-17T04:48:51;5.23;;;1.37;;
26080;SDS011;13991;51.174;4.438;2023-08-17T04:51:17;6.80;;;2.20;;
26080;SDS011;13991;51.174;4.438;2023-08-17T04:53:43;10.17;;;1.70;;
26080;SDS011;13991;51.174;4.438;2023-08-17T04:56:09;10.37;;;2.00;;
26080;SDS011;13991;51.174;4.438;2023-08-17T04:58:34;15.67;;;2.13;;
26080;SDS011;13991;51.174;4.438;2023-08-17T05:01:00;10.27;;;1.73;;
26080;SDS011;13991;51.174;4.438;2023-08-17T05:03:25;9.13;;;1.93;;
26080;SDS011;13991;51.174;4.438;2023-08-17T05:05:51;11.17;;;2.03;;
26080;SDS011;13991;51.174;4.438;2023-08-17T05:08:18;13.37;;;2.17;;
26080;SDS011;13991;51.174;4.438;2023-08-17T05:10:44;11.27;;;1.90;;
26080;SDS011;13991;51.174;4.438;2023-08-17T05:13:10;8.60;;;2.00;;
26080;SDS011;13991;51.174;4.438;2023-08-17T05:15:35;8.30;;;1.70;;
26080;SDS011;13991;51.174;4.438;2023-08-17T05:18:01;8.23;;;1.33;;
26080;SDS011;13991;51.174;4.438;2023-08-17T05:20:26;7.90;;;1.73;;
26080;SDS011;13991;51.174;4.438;2023-08-17T05:22:52;12.33;;;1.30;;
26080;SDS011;13991;51.174;4.438;2023-08-17T05:25:18;7.83;;;1.70;;
26080;SDS011;13991;51.174;4.438;2023-08-17T05:31:06;7.67;;;1.60;;
26080;SDS011;13991;51.174;4.438;2023-08-17T05:33:32;9.43;;;1.80;;
26080;SDS011;13991;51.174;4.438;2023-08-17T05:35:58;7.00;;;1.27;;
26080;SDS011;13991;51.174;4.438;2023-08-17T05:38:24;11.50;;;1.70;;
26080;SDS011;13991;51.174;4.438;2023-08-17T05:40:54;5.23;;;1.33;;
26080;SDS011;13991;51.174;4.438;2023-08-17T05:43:21;8.67;;;1.73;;
26080;SDS011;13991;51.174;4.438;2023-08-17T05:45:47;3.93;;;1.73;;
26080;SDS011;13991;51.174;4.438;2023-08-17T05:48:13;5.97;;;1.30;;
26080;SDS011;13991;51.174;4.438;2023-08-17T05:50:41;7.77;;;1.20;;
26080;SDS011;13991;51.174;4.438;2023-08-17T05:53:07;9.83;;;1.90;;
26080;SDS011;13991;51.174;4.438;2023-08-17T05:55:33;10.07;;;1.70;;
26080;SDS011;13991;51.174;4.438;2023-08-17T05:57:59;9.13;;;1.87;;
26080;SDS011;13991;51.174;4.438;2023-08-17T06:00:25;10.20;;;2.00;;
26080;SDS011;13991;51.174;4.438;2023-08-17T06:02:50;4.53;;;1.53;;
26080;SDS011;13991;51.174;4.438;2023-08-17T06:05:16;8.67;;;2.10;;
26080;SDS011;13991;51.174;4.438;2023-08-17T06:07:42;7.17;;;1.70;;
26080;SDS011;13991;51.174;4.438;2023-08-17T06:10:09;5.27;;;1.60;;
26080;SDS011;13991;51.174;4.438;2023-08-17T06:12:35;9.57;;;1.87;;
26080;SDS011;13991;51.174;4.438;2023-08-17T06:15:04;15.10;;;1.93;;
26080;SDS011;13991;51.174;4.438;2023-08-17T06:17:30;14.33;;;1.90;;
26080;SDS011;13991;51.174;4.438;2023-08-17T06:19:55;7.07;;;1.33;;
26080;SDS011;13991;51.174;4.438;2023-08-17T06:22:21;6.10;;;1.07;;
26080;SDS011;13991;51.174;4.438;2023-08-17T06:24:47;12.77;;;1.30;;
26080;SDS011;13991;51.174;4.438;2023-08-17T06:27:15;9.93;;;1.80;;
26080;SDS011;13991;51.174;4.438;2023-08-17T06:29:41;11.13;;;1.83;;
26080;SDS011;13991;51.174;4.438;2023-08-17T06:32:07;7.30;;;1.60;;
26080;SDS011;13991;51.174;4.438;2023-08-17T06:34:33;11.50;;;1.60;;
26080;SDS011;13991;51.174;4.438;2023-08-17T06:36:59;5.80;;;1.43;;
26080;SDS011;13991;51.174;4.438;2023-08-17T06:39:27;8.33;;;1.60;;
26080;SDS011;13991;51.174;4.438;2023-08-17T06:41:53;9.37;;;1.60;;
26080;SDS011;13991;51.174;4.438;2023-08-17T06:44:19;7.97;;;1.57;;
26080;SDS011;13991;51.174;4.438;2023-08-17T06:46:45;15.30;;;1.80;;
26080;SDS011;13991;51.174;4.438;2023-08-17T06:49:11;10.00;;;1.40;;
26080;SDS011;13991;51.174;4.438;2023-08-17T06:51:37;10.40;;;1.43;;
26080;SDS011;13991;51.174;4.438;2023-08-17T06:54:03;11.33;;;2.20;;
26080;SDS011;13991;51.174;4.438;2023-08-17T06:56:30;8.93;;;1.50;;
26080;SDS011;13991;51.174;4.438;2023-08-17T06:58:56;6.43;;;1.87;;
26080;SDS011;13991;51.174;4.438;2023-08-17T07:01:21;12.03;;;1.90;;
26080;SDS011;13991;51.174;4.438;2023-08-17T07:03:47;10.63;;;1.70;;
26080;SDS011;13991;51.174;4.438;2023-08-17T07:06:12;8.80;;;1.53;;
26080;SDS011;13991;51.174;4.438;2023-08-17T07:08:38;11.50;;;1.67;;
26080;SDS011;13991;51.174;4.438;2023-08-17T07:11:04;9.13;;;1.80;;
26080;SDS011;13991;51.174;4.438;2023-08-17T07:13:31;15.13;;;1.97;;
26080;SDS011;13991;51.174;4.438;2023-08-17T07:15:57;5.20;;;1.43;;
26080;SDS011;13991;51.174;4.438;2023-08-17T07:18:22;12.00;;;2.43;;
26080;SDS011;13991;51.174;4.438;2023-08-17T07:20:48;10.07;;;1.63;;
26080;SDS011;13991;51.174;4.438;2023-08-17T07:23:14;13.00;;;2.40;;
26080;SDS011;13991;51.174;4.438;2023-08-17T07:25:40;13.23;;;1.87;;
26080;SDS011;13991;51.174;4.438;2023-08-17T07:28:06;11.33;;;2.30;;
26080;SDS011;13991;51.174;4.438;2023-08-17T07:30:31;10.67;;;2.00;;
26080;SDS011;13991;51.174;4.438;2023-08-17T07:32:57;5.20;;;1.63;;
26080;SDS011;13991;51.174;4.438;2023-08-17T07:35:23;7.40;;;1.80;;
26080;SDS011;13991;51.174;4.438;2023-08-17T07:37:48;13.77;;;1.97;;
26080;SDS011;13991;51.174;4.438;2023-08-17T07:40:14;6.93;;;1.83;;
26080;SDS011;13991;51.174;4.438;2023-08-17T07:42:41;28.57;;;2.20;;
26080;SDS011;13991;51.174;4.438;2023-08-17T07:45:07;9.10;;;2.30;;
26080;SDS011;13991;51.174;4.438;2023-08-17T07:47:33;11.40;;;1.90;;
26080;SDS011;13991;51.174;4.438;2023-08-17T07:50:01;8.57;;;2.10;;
26080;SDS011;13991;51.174;4.438;2023-08-17T07:52:27;17.40;;;2.63;;
26080;SDS011;13991;51.174;4.438;2023-08-17T07:54:53;10.73;;;1.93;;
26080;SDS011;13991;51.174;4.438;2023-08-17T07:57:19;12.43;;;2.13;;
26080;SDS011;13991;51.174;4.438;2023-08-17T07:59:44;9.30;;;2.03;;
26080;SDS011;13991;51.174;4.438;2023-08-17T08:02:10;10.33;;;2.20;;
26080;SDS011;13991;51.174;4.438;2023-08-17T08:04:36;11.43;;;2.57;;
26080;SDS011;13991;51.174;4.438;2023-08-17T08:07:01;9.13;;;2.57;;
26080;SDS011;13991;51.174;4.438;2023-08-17T08:09:27;11.90;;;2.30;;
26080;SDS011;13991;51.174;4.438;2023-08-17T08:11:52;8.30;;;2.63;;
26080;SDS011;13991;51.174;4.438;2023-08-17T08:14:18;12.37;;;2.50;;
26080;SDS011;13991;51.174;4.438;2023-08-17T08:16:44;10.87;;;2.23;;
26080;SDS011;13991;51.174;4.438;2023-08-17T08:19:09;15.57;;;2.53;;
26080;SDS011;13991;51.174;4.438;2023-08-17T08:21:35;8.60;;;2.53;;
26080;SDS011;13991;51.174;4.438;2023-08-17T08:24:00;15.70;;;2.73;;
26080;SDS011;13991;51.174;4.438;2023-08-17T08:26:26;9.27;;;2.37;;
26080;SDS011;13991;51.174;4.438;2023-08-17T08:28:52;9.03;;;2.30;;
26080;SDS011;13991;51.174;4.438;2023-08-17T08:31:17;10.77;;;2.67;;
26080;SDS011;13991;51.174;4.438;2023-08-17T08:33:43;13.13;;;2.87;;
26080;SDS011;13991;51.174;4.438;2023-08-17T08:36:09;12.83;;;3.40;;
26080;SDS011;13991;51.174;4.438;2023-08-17T08:38:34;16.83;;;3.03;;
26080;SDS011;13991;51.174;4.438;2023-08-17T08:41:01;12.37;;;2.57;;
26080;SDS011;13991;51.174;4.438;2023-08-17T08:43:27;9.13;;;2.40;;
26080;SDS011;13991;51.174;4.438;2023-08-17T08:45:53;11.40;;;3.07;;
26080;SDS011;13991;51.174;4.438;2023-08-17T08:48:20;7.30;;;2.40;;
26080;SDS011;13991;51.174;4.438;2023-08-17T08:50:48;11.03;;;2.97;;
26080;SDS011;13991;51.174;4.438;2023-08-17T08:53:15;9.63;;;2.77;;
26080;SDS011;13991;51.174;4.438;2023-08-17T08:55:46;9.17;;;2.87;;
26080;SDS011;13991;51.174;4.438;2023-08-17T08:58:20;10.70;;;3.03;;
26080;SDS011;13991;51.174;4.438;2023-08-17T09:00:46;15.70;;;2.87;;
26080;SDS011;13991;51.174;4.438;2023-08-17T09:03:12;15.63;;;3.23;;
26080;SDS011;13991;51.174;4.438;2023-08-17T09:05:42;8.33;;;2.67;;
26080;SDS011;13991;51.174;4.438;2023-08-17T09:08:09;16.40;;;3.13;;
26080;SDS011;13991;51.174;4.438;2023-08-17T09:10:37;7.13;;;2.93;;
26080;SDS011;13991;51.174;4.438;2023-08-17T09:13:03;13.70;;;3.33;;
26080;SDS011;13991;51.174;4.438;2023-08-17T09:15:29;5.50;;;2.27;;
26080;SDS011;13991;51.174;4.438;2023-08-17T09:17:54;8.40;;;3.13;;
26080;SDS011;13991;51.174;4.438;2023-08-17T09:20:37;13.47;;;3.33;;
26080;SDS011;13991;51.174;4.438;2023-08-17T09:23:04;15.37;;;3.77;;
26080;SDS011;13991;51.174;4.438;2023-08-17T09:25:37;13.63;;;3.90;;
26080;SDS011;13991;51.174;4.438;2023-08-17T09:28:08;16.43;;;3.57;;
26080;SDS011;13991;51.174;4.438;2023-08-17T09:30:54;11.03;;;3.80;;
26080;SDS011;13991;51.174;4.438;2023-08-17T09:33:22;24.17;;;4.73;;
26080;SDS011;13991;51.174;4.438;2023-08-17T09:35:49;10.60;;;3.83;;
26080;SDS011;13991;51.174;4.438;2023-08-17T09:38:16;14.47;;;3.87;;
26080;SDS011;13991;51.174;4.438;2023-08-17T09:40:42;10.97;;;4.13;;
26080;SDS011;13991;51.174;4.438;2023-08-17T09:43:08;13.80;;;4.00;;
26080;SDS011;13991;51.174;4.438;2023-08-17T09:45:35;12.67;;;4.17;;
26080;SDS011;13991;51.174;4.438;2023-08-17T09:48:07;12.53;;;3.83;;
26080;SDS011;13991;51.174;4.438;2023-08-17T09:50:33;12.53;;;3.23;;
26080;SDS011;13991;51.174;4.438;2023-08-17T09:53:01;9.27;;;3.13;;
26080;SDS011;13991;51.174;4.438;2023-08-17T09:55:30;15.20;;;4.30;;
26080;SDS011;13991;51.174;4.438;2023-08-17T09:57:59;20.97;;;4.87;;
26080;SDS011;13991;51.174;4.438;2023-08-17T10:00:25;16.67;;;4.87;;
26080;SDS011;13991;51.174;4.438;2023-08-17T10:02:53;18.77;;;5.67;;
26080;SDS011;13991;51.174;4.438;2023-08-17T10:05:23;15.87;;;5.27;;
26080;SDS011;13991;51.174;4.438;2023-08-17T10:07:53;17.50;;;5.27;;
26080;SDS011;13991;51.174;4.438;2023-08-17T10:10:26;16.93;;;5.37;;
26080;SDS011;13991;51.174;4.438;2023-08-17T10:13:10;12.23;;;4.53;;
26080;SDS011;13991;51.174;4.438;2023-08-17T10:15:50;9.80;;;4.67;;
26080;SDS011;13991;51.174;4.438;2023-08-17T10:18:31;25.53;;;5.03;;
26080;SDS011;13991;51.174;4.438;2023-08-17T10:21:07;14.87;;;4.80;;
26080;SDS011;13991;51.174;4.438;2023-08-17T10:23:50;19.47;;;4.97;;
26080;SDS011;13991;51.174;4.438;2023-08-17T10:26:16;15.37;;;4.27;;
26080;SDS011;13991;51.174;4.438;2023-08-17T10:28:42;17.90;;;5.67;;
26080;SDS011;13991;51.174;4.438;2023-08-17T10:31:10;17.17;;;5.50;;
26080;SDS011;13991;51.174;4.438;2023-08-17T10:33:36;12.20;;;5.37;;
26080;SDS011;13991;51.174;4.438;2023-08-17T10:36:04;13.60;;;4.33;;
26080;SDS011;13991;51.174;4.438;2023-08-17T10:38:30;16.60;;;5.17;;
26080;SDS011;13991;51.174;4.438;2023-08-17T10:41:12;14.67;;;5.17;;
26080;SDS011;13991;51.174;4.438;2023-08-17T10:43:58;13.67;;;5.20;;
26080;SDS011;13991;51.174;4.438;2023-08-17T10:46:34;10.97;;;4.97;;
26080;SDS011;13991;51.174;4.438;2023-08-17T10:49:06;13.83;;;5.57;;
26080;SDS011;13991;51.174;4.438;2023-08-17T10:51:33;13.13;;;5.23;;
26080;SDS011;13991;51.174;4.438;2023-08-17T10:54:01;18.87;;;6.00;;
26080;SDS011;13991;51.174;4.438;2023-08-17T10:56:28;16.17;;;6.23;;
26080;SDS011;13991;51.174;4.438;2023-08-17T10:58:54;14.87;;;7.13;;
26080;SDS011;13991;51.174;4.438;2023-08-17T11:01:35;16.87;;;6.90;;
26080;SDS011;13991;51.174;4.438;2023-08-17T11:04:23;24.57;;;6.03;;
26080;SDS011;13991;51.174;4.438;2023-08-17T11:06:58;13.90;;;6.63;;
26080;SDS011;13991;51.174;4.438;2023-08-17T11:09:27;14.67;;;6.20;;
26080;SDS011;13991;51.174;4.438;2023-08-17T11:11:53;18.67;;;7.03;;
26080;SDS011;13991;51.174;4.438;2023-08-17T11:14:24;24.23;;;5.90;;
26080;SDS011;13991;51.174;4.438;2023-08-17T11:16:53;23.73;;;7.70;;
26080;SDS011;13991;51.174;4.438;2023-08-17T11:19:18;17.67;;;6.33;;
26080;SDS011;13991;51.174;4.438;2023-08-17T11:21:46;13.17;;;5.50;;
26080;SDS011;13991;51.174;4.438;2023-08-17T11:24:12;21.87;;;5.43;;
26080;SDS011;13991;51.174;4.438;2023-08-17T11:26:40;12.90;;;5.53;;
26080;SDS011;13991;51.174;4.438;2023-08-17T11:29:06;12.77;;;5.77;;
26080;SDS011;13991;51.174;4.438;2023-08-17T11:31:35;14.60;;;5.90;;
26080;SDS011;13991;51.174;4.438;2023-08-17T11:34:05;19.33;;;6.67;;
26080;SDS011;13991;51.174;4.438;2023-08-17T11:36:31;13.13;;;5.50;;
26080;SDS011;13991;51.174;4.438;2023-08-17T11:39:01;15.57;;;6.27;;
26080;SDS011;13991;51.174;4.438;2023-08-17T11:41:29;17.27;;;6.47;;
26080;SDS011;13991;51.174;4.438;2023-08-17T11:43:54;18.30;;;7.03;;
26080;SDS011;13991;51.174;4.438;2023-08-17T11:46:20;22.50;;;6.50;;
26080;SDS011;13991;51.174;4.438;2023-08-17T11:48:47;19.40;;;5.70;;
26080;SDS011;13991;51.174;4.438;2023-08-17T11:51:19;13.20;;;5.70;;
26080;SDS011;13991;51.174;4.438;2023-08-17T11:54:17;20.37;;;6.50;;
26080;SDS011;13991;51.174;4.438;2023-08-17T11:56:42;16.93;;;6.40;;
26080;SDS011;13991;51.174;4.438;2023-08-17T12:02:01;18.67;;;6.80;;
26080;SDS011;13991;51.174;4.438;2023-08-17T12:04:26;17.97;;;6.13;;
26080;SDS011;13991;51.174;4.438;2023-08-17T12:06:52;15.17;;;6.47;;
26080;SDS011;13991;51.174;4.438;2023-08-17T12:09:19;18.80;;;7.13;;
26080;SDS011;13991;51.174;4.438;2023-08-17T12:11:48;18.13;;;6.23;;
26080;SDS011;13991;51.174;4.438;2023-08-17T12:14:18;17.67;;;6.03;;
26080;SDS011;13991;51.174;4.438;2023-08-17T12:16:46;13.97;;;6.53;;
26080;SDS011;13991;51.174;4.438;2023-08-17T12:19:13;18.87;;;6.57;;
26080;SDS011;13991;51.174;4.438;2023-08-17T12:21:40;16.70;;;6.27;;
26080;SDS011;13991;51.174;4.438;2023-08-17T12:24:08;21.67;;;7.70;;
26080;SDS011;13991;51.174;4.438;2023-08-17T12:26:34;24.57;;;9.17;;
26080;SDS011;13991;51.174;4.438;2023-08-17T12:29:00;19.80;;;7.87;;
26080;SDS011;13991;51.174;4.438;2023-08-17T12:31:32;27.80;;;8.37;;
26080;SDS011;13991;51.174;4.438;2023-08-17T12:33:57;16.70;;;8.57;;
26080;SDS011;13991;51.174;4.438;2023-08-17T12:36:23;16.43;;;7.60;;
26080;SDS011;13991;51.174;4.438;2023-08-17T12:38:49;18.50;;;9.70;;
26080;SDS011;13991;51.174;4.438;2023-08-17T12:41:14;20.83;;;8.30;;
26080;SDS011;13991;51.174;4.438;2023-08-17T12:43:41;20.60;;;9.43;;
26080;SDS011;13991;51.174;4.438;2023-08-17T12:46:07;25.07;;;8.80;;
26080;SDS011;13991;51.174;4.438;2023-08-17T12:48:33;19.63;;;9.20;;
26080;SDS011;13991;51.174;4.438;2023-08-17T12:50:58;20.77;;;9.43;;
26080;SDS011;13991;51.174;4.438;2023-08-17T12:53:24;20.40;;;8.60;;
26080;SDS011;13991;51.174;4.438;2023-08-17T12:55:50;24.70;;;8.63;;
26080;SDS011;13991;51.174;4.438;2023-08-17T12:58:15;19.90;;;8.53;;
26080;SDS011;13991;51.174;4.438;2023-08-17T13:00:41;19.53;;;9.83;;
26080;SDS011;13991;51.174;4.438;2023-08-17T13:03:07;22.83;;;9.47;;
26080;SDS011;13991;51.174;4.438;2023-08-17T13:05:33;24.57;;;8.50;;
26080;SDS011;13991;51.174;4.438;2023-08-17T13:07:58;22.03;;;9.03;;
26080;SDS011;13991;51.174;4.438;2023-08-17T13:10:24;16.70;;;8.80;;
26080;SDS011;13991;51.174;4.438;2023-08-17T13:12:50;25.70;;;10.10;;
26080;SDS011;13991;51.174;4.438;2023-08-17T13:15:20;21.63;;;9.60;;
26080;SDS011;13991;51.174;4.438;2023-08-17T13:17:46;19.07;;;10.00;;
26080;SDS011;13991;51.174;4.438;2023-08-17T13:20:12;28.80;;;10.97;;
26080;SDS011;13991;51.174;4.438;2023-08-17T13:22:38;21.47;;;12.17;;
26080;SDS011;13991;51.174;4.438;2023-08-17T13:25:04;24.43;;;11.17;;
26080;SDS011;13991;51.174;4.438;2023-08-17T13:27:30;28.70;;;12.13;;
26080;SDS011;13991;51.174;4.438;2023-08-17T13:29:56;20.70;;;11.17;;
26080;SDS011;13991;51.174;4.438;2023-08-17T13:32:24;27.00;;;11.13;;
26080;SDS011;13991;51.174;4.438;2023-08-17T13:34:50;29.70;;;11.20;;
26080;SDS011;13991;51.174;4.438;2023-08-17T13:37:16;18.50;;;10.53;;
26080;SDS011;13991;51.174;4.438;2023-08-17T13:39:42;29.03;;;12.20;;
26080;SDS011;13991;51.174;4.438;2023-08-17T13:42:08;20.67;;;10.27;;
26080;SDS011;13991;51.174;4.438;2023-08-17T13:44:34;26.90;;;11.40;;
26080;SDS011;13991;51.174;4.438;2023-08-17T13:47:00;20.37;;;10.67;;
26080;SDS011;13991;51.174;4.438;2023-08-17T13:49:25;28.73;;;10.73;;
26080;SDS011;13991;51.174;4.438;2023-08-17T13:51:55;22.43;;;9.97;;
26080;SDS011;13991;51.174;4.438;2023-08-17T13:54:21;23.77;;;9.97;;
26080;SDS011;13991;51.174;4.438;2023-08-17T13:56:47;23.23;;;9.53;;
26080;SDS011;13991;51.174;4.438;2023-08-17T13:59:13;20.93;;;10.40;;
26080;SDS011;13991;51.174;4.438;2023-08-17T14:01:39;24.17;;;9.73;;
26080;SDS011;13991;51.174;4.438;2023-08-17T14:04:05;23.13;;;9.57;;
26080;SDS011;13991;51.174;4.438;2023-08-17T14:06:36;23.17;;;9.47;;
26080;SDS011;13991;51.174;4.438;2023-08-17T14:09:02;21.03;;;9.23;;
26080;SDS011;13991;51.174;4.438;2023-08-17T14:11:28;22.67;;;9.77;;
26080;SDS011;13991;51.174;4.438;2023-08-17T14:13:54;24.87;;;9.37;;
26080;SDS011;13991;51.174;4.438;2023-08-17T14:16:19;22.47;;;9.37;;
26080;SDS011;13991;51.174;4.438;2023-08-17T14:18:45;22.33;;;10.07;;
26080;SDS011;13991;51.174;4.438;2023-08-17T14:21:11;22.23;;;8.70;;
26080;SDS011;13991;51.174;4.438;2023-08-17T14:23:37;24.63;;;9.83;;
26080;SDS011;13991;51.174;4.438;2023-08-17T14:26:05;25.80;;;9.80;;
26080;SDS011;13991;51.174;4.438;2023-08-17T14:28:30;23.50;;;8.97;;
26080;SDS011;13991;51.174;4.438;2023-08-17T14:30:56;23.57;;;10.10;;
26080;SDS011;13991;51.174;4.438;2023-08-17T14:33:22;27.53;;;9.83;;
26080;SDS011;13991;51.174;4.438;2023-08-17T14:35:48;29.87;;;9.80;;
26080;SDS011;13991;51.174;4.438;2023-08-17T14:38:14;27.23;;;10.00;;
26080;SDS011;13991;51.174;4.438;2023-08-17T14:40:43;32.37;;;10.73;;
26080;SDS011;13991;51.174;4.438;2023-08-17T14:43:13;31.13;;;10.80;;
26080;SDS011;13991;51.174;4.438;2023-08-17T14:45:40;26.13;;;10.93;;
26080;SDS011;13991;51.174;4.438;2023-08-17T14:48:07;26.50;;;11.70;;
26080;SDS011;13991;51.174;4.438;2023-08-17T14:50:35;31.83;;;11.40;;
26080;SDS011;13991;51.174;4.438;2023-08-17T14:53:02;33.43;;;12.53;;
26080;SDS011;13991;51.174;4.438;2023-08-17T14:55:30;24.43;;;12.00;;
26080;SDS011;13991;51.174;4.438;2023-08-17T14:57:56;34.87;;;14.93;;
26080;SDS011;13991;51.174;4.438;2023-08-17T15:00:22;27.07;;;12.80;;
26080;SDS011;13991;51.174;4.438;2023-08-17T15:02:48;28.50;;;13.97;;
26080;SDS011;13991;51.174;4.438;2023-08-17T15:05:14;38.47;;;15.07;;
26080;SDS011;13991;51.174;4.438;2023-08-17T15:07:40;31.30;;;14.60;;
26080;SDS011;13991;51.174;4.438;2023-08-17T15:10:06;33.10;;;14.43;;
26080;SDS011;13991;51.174;4.438;2023-08-17T15:12:33;29.33;;;13.73;;
26080;SDS011;13991;51.174;4.438;2023-08-17T15:14:59;28.20;;;13.53;;
26080;SDS011;13991;51.174;4.438;2023-08-17T15:17:26;29.97;;;13.77;;
26080;SDS011;13991;51.174;4.438;2023-08-17T15:19:51;30.03;;;12.83;;
26080;SDS011;13991;51.174;4.438;2023-08-17T15:22:17;28.93;;;13.53;;
26080;SDS011;13991;51.174;4.438;2023-08-17T15:24:44;38.07;;;14.87;;
26080;SDS011;13991;51.174;4.438;2023-08-17T15:27:12;29.03;;;14.70;;